sensor_id;sensor_type;location;lat;lon;timestamp;pressure;altitude;pressure_sealevel;temperature;humidity
13314;BME280;6725;48.112;11.604;2023-08-30T00:01:59;94279.38;;;12.91;100.00
13314;BME280;6725;48.112;11.604;2023-08-30T00:04:24;94273.56;;;12.89;100.00
13314;BME280;6725;48.112;11.604;2023-08-30T00:06:49;94277.50;;;12.88;100.00
13314;BME280;6725;48.112;11.604;2023-08-30T00:09:15;94277.22;;;12.86;100.00
13314;BME280;6725;48.112;11.604;2023-08-30T00:11:41;94276.88;;;12.84;100.00
13314;BME280;6725;48.112;11.604;2023-08-30T00:14:06;94278.16;;;12.92;100.00
13314;BME280;6725;48.112;11.604;2023-08-30T00:16:36;94273.44;;;12.92;100.00
13314;BME280;6725;48.112;11.604;2023-08-30T00:19:03;94282.31;;;12.96;100.00
13314;BME280;6725;48.112;11.604;2023-08-30T00:21:29;94278.16;;;12.92;100.00
13314;BME280;6725;48.112;11.604;2023-08-30T00:23:54;94281.53;;;12.96;100.00
13314;BME280;6725;48.112;11.604;2023-08-30T00:26:19;94283.06;;;12.97;100.00
13314;BME280;6725;48.112;11.604;2023-08-30T00:28:45;94289.44;;;12.94;100.00
13314;BME280;6725;48.112;11.604;2023-08-30T00:31:10;94287.59;;;12.91;100.00
13314;BME280;6725;48.112;11.604;2023-08-30T00:33:35;94284.50;;;12.89;100.00
13314;BME280;6725;48.112;11.604;2023-08-30T00:36:01;94284.41;;;12.92;100.00
13314;BME280;6725;48.112;11.604;2023-08-30T00:38:27;94288.81;;;12.90;100.00
13314;BME280;6725;48.112;11.604;2023-08-30T00:40:53;94284.50;;;12.89;100.00
13314;BME280;6725;48.112;11.604;2023-08-30T00:43:20;94292.28;;;12.90;100.00
13314;BME280;6725;48.112;11.604;2023-08-30T00:45:46;94290.66;;;12.93;100.00
13314;BME280;6725;48.112;11.604;2023-08-30T00:48:12;94283.63;;;12.92;100.00
13314;BME280;6725;48.112;11.604;2023-08-30T00:50:38;94291.66;;;12.86;100.00
13314;BME280;6725;48.112;11.604;2023-08-30T00:53:06;94284.66;;;12.85;100.00
13314;BME280;6725;48.112;11.604;2023-08-30T00:55:34;94281.47;;;12.87;100.00
13314;BME280;6725;48.112;11.604;2023-08-30T00:58:00;94280.94;;;12.79;100.00
13314;BME280;6725;48.112;11.604;2023-08-30T01:00:30;94286.41;;;12.79;100.00
13314;BME280;6725;48.112;11.604;2023-08-30T01:02:56;94287.44;;;12.73;100.00
13314;BME280;6725;48.112;11.604;2023-08-30T01:05:22;94288.22;;;12.73;100.00
13314;BME280;6725;48.112;11.604;2023-08-30T01:07:48;94286.22;;;12.74;100.00
13314;BME280;6725;48.112;11.604;2023-08-30T01:10:14;94290.28;;;12.82;100.00
13314;BME280;6725;48.112;11.604;2023-08-30T01:12:43;94287.19;;;12.80;100.00
13314;BME280;6725;48.112;11.604;2023-08-30T01:15:15;94294.28;;;12.90;100.00
13314;BME280;6725;48.112;11.604;2023-08-30T01:17:43;94289.25;;;12.88;100.00
13314;BME280;6725;48.112;11.604;2023-08-30T01:20:10;94288.59;;;12.84;100.00
13314;BME280;6725;48.112;11.604;2023-08-30T01:23:06;94285.88;;;12.84;100.00
13314;BME280;6725;48.112;11.604;2023-08-30T01:25:33;94287.41;;;12.85;100.00
13314;BME280;6725;48.112;11.604;2023-08-30T01:28:06;94289.69;;;12.87;100.00
13314;BME280;6725;48.112;11.604;2023-08-30T01:30:33;94293.94;;;12.88;100.00
13314;BME280;6725;48.112;11.604;2023-08-30T01:33:00;94293.94;;;12.88;100.00
13314;BME280;6725;48.112;11.604;2023-08-30T01:35:27;94284.41;;;12.92;100.00
13314;BME280;6725;48.112;11.604;2023-08-30T01:37:59;94285.94;;;12.93;100.00
13314;BME280;6725;48.112;11.604;2023-08-30T01:40:25;94289.09;;;12.92;100.00
13314;BME280;6725;48.112;11.604;2023-08-30T01:42:52;94288.38;;;12.91;100.00
13314;BME280;6725;48.112;11.604;2023-08-30T01:45:20;94300.06;;;12.92;100.00
13314;BME280;6725;48.112;11.604;2023-08-30T01:47:47;94297.03;;;12.90;100.00
13314;BME280;6725;48.112;11.604;2023-08-30T01:50:14;94302.16;;;12.88;100.00
13314;BME280;6725;48.112;11.604;2023-08-30T01:52:40;94295.47;;;12.89;100.00
13314;BME280;6725;48.112;11.604;2023-08-30T01:55:07;94301.72;;;12.89;100.00
13314;BME280;6725;48.112;11.604;2023-08-30T01:57:33;94299.75;;;12.90;100.00
13314;BME280;6725;48.112;11.604;2023-08-30T01:59:59;94304.81;;;12.91;100.00
13314;BME280;6725;48.112;11.604;2023-08-30T02:02:28;94299.75;;;12.90;100.00
13314;BME280;6725;48.112;11.604;2023-08-30T02:04:54;94298.69;;;12.87;100.00
13314;BME280;6725;48.112;11.604;2023-08-30T02:07:23;94303.59;;;12.92;100.00
13314;BME280;6725;48.112;11.604;2023-08-30T02:12:22;94315.13;;;12.87;100.00
13314;BME280;6725;48.112;11.604;2023-08-30T02:14:50;94301.72;;;12.89;100.00
13314;BME280;6725;48.112;11.604;2023-08-30T02:17:17;94300.66;;;12.87;100.00
13314;BME280;6725;48.112;11.604;2023-08-30T02:19:44;94309.94;;;12.89;100.00
13314;BME280;6725;48.112;11.604;2023-08-30T02:22:09;94311.91;;;12.89;100.00
13314;BME280;6725;48.112;11.604;2023-08-30T02:24:35;94306.44;;;12.89;100.00
13314;BME280;6725;48.112;11.604;2023-08-30T02:27:00;94308.88;;;12.87;100.00
13314;BME280;6725;48.112;11.604;2023-08-30T02:29:26;94297.03;;;12.90;100.00
13314;BME280;6725;48.112;11.604;2023-08-30T02:31:51;94297.78;;;12.90;100.00
13314;BME280;6725;48.112;11.604;2023-08-30T02:34:16;94296.25;;;12.89;100.00
13314;BME280;6725;48.112;11.604;2023-08-30T02:36:42;94307.66;;;12.88;100.00
13314;BME280;6725;48.112;11.604;2023-08-30T02:39:07;94304.81;;;12.91;100.00
13314;BME280;6725;48.112;11.604;2023-08-30T02:41:32;94305.56;;;12.92;100.00
13314;BME280;6725;48.112;11.604;2023-08-30T02:43:59;94310.16;;;12.95;100.00
13314;BME280;6725;48.112;11.604;2023-08-30T02:46:24;94309.50;;;12.91;100.00
13314;BME280;6725;48.112;11.604;2023-08-30T02:48:50;94301.63;;;12.93;100.00
13314;BME280;6725;48.112;11.604;2023-08-30T02:51:15;94310.81;;;12.99;100.00
13314;BME280;6725;48.112;11.604;2023-08-30T02:53:42;94320.56;;;13.00;100.00
13314;BME280;6725;48.112;11.604;2023-08-30T02:56:07;94318.59;;;13.00;100.00
13314;BME280;6725;48.112;11.604;2023-08-30T02:58:32;94325.59;;;13.01;100.00
13314;BME280;6725;48.112;11.604;2023-08-30T03:00:58;94324.09;;;13.00;100.00
13314;BME280;6725;48.112;11.604;2023-08-30T03:03:23;94322.63;;;12.96;100.00
13314;BME280;6725;48.112;11.604;2023-08-30T03:05:48;94322.00;;;12.92;100.00
13314;BME280;6725;48.112;11.604;2023-08-30T03:08:14;94326.59;;;12.95;100.00
13314;BME280;6725;48.112;11.604;2023-08-30T03:10:39;94323.53;;;12.93;100.00
13314;BME280;6725;48.112;11.604;2023-08-30T03:13:04;94325.19;;;12.90;100.00
13314;BME280;6725;48.112;11.604;2023-08-30T03:15:31;94318.50;;;12.91;100.00
13314;BME280;6725;48.112;11.604;2023-08-30T03:17:58;94322.00;;;12.92;100.00
13314;BME280;6725;48.112;11.604;2023-08-30T03:20:23;94318.94;;;12.90;100.00
13314;BME280;6725;48.112;11.604;2023-08-30T03:22:48;94316.22;;;12.90;100.00
13314;BME280;6725;48.112;11.604;2023-08-30T03:25:14;94307.22;;;12.89;100.00
13314;BME280;6725;48.112;11.604;2023-08-30T03:27:39;94310.41;;;12.88;100.00
13314;BME280;6725;48.112;11.604;2023-08-30T03:30:05;94308.09;;;12.86;100.00
13314;BME280;6725;48.112;11.604;2023-08-30T03:32:31;94304.47;;;12.89;100.00
13314;BME280;6725;48.112;11.604;2023-08-30T03:34:57;94304.91;;;12.88;100.00
13314;BME280;6725;48.112;11.604;2023-08-30T03:37:23;94314.78;;;12.85;100.00
13314;BME280;6725;48.112;11.604;2023-08-30T03:39:48;94313.91;;;12.88;100.00
13314;BME280;6725;48.112;11.604;2023-08-30T03:42:13;94307.09;;;12.93;100.00
13314;BME280;6725;48.112;11.604;2023-08-30T03:44:39;94315.63;;;12.95;100.00
13314;BME280;6725;48.112;11.604;2023-08-30T03:47:05;94319.59;;;12.94;100.00
13314;BME280;6725;48.112;11.604;2023-08-30T03:49:30;94315.63;;;12.95;100.00
13314;BME280;6725;48.112;11.604;2023-08-30T03:51:58;94328.13;;;12.96;100.00
13314;BME280;6725;48.112;11.604;2023-08-30T03:54:24;94318.06;;;12.93;100.00
13314;BME280;6725;48.112;11.604;2023-08-30T03:56:49;94321.25;;;12.91;100.00
13314;BME280;6725;48.112;11.604;2023-08-30T03:59:14;94319.59;;;12.94;100.00
13314;BME280;6725;48.112;11.604;2023-08-30T04:01:40;94320.03;;;12.92;100.00
13314;BME280;6725;48.112;11.604;2023-08-30T04:04:05;94316.22;;;12.90;100.00
13314;BME280;6725;48.112;11.604;2023-08-30T04:06:31;94321.06;;;12.86;100.00
13314;BME280;6725;48.112;11.604;2023-08-30T04:08:56;94318.63;;;12.88;100.00
13314;BME280;6725;48.112;11.604;2023-08-30T04:11:22;94321.06;;;12.86;100.00
13314;BME280;6725;48.112;11.604;2023-08-30T04:13:47;94326.97;;;12.84;100.00
13314;BME280;6725;48.112;11.604;2023-08-30T04:16:13;94322.56;;;12.87;100.00
13314;BME280;6725;48.112;11.604;2023-08-30T04:18:38;94326.09;;;12.87;100.00
13314;BME280;6725;48.112;11.604;2023-08-30T04:21:03;94331.09;;;12.89;100.00
13314;BME280;6725;48.112;11.604;2023-08-30T04:23:31;94329.03;;;12.93;100.00
13314;BME280;6725;48.112;11.604;2023-08-30T04:25:56;94339.06;;;12.96;100.00
13314;BME280;6725;48.112;11.604;2023-08-30T04:28:21;94344.94;;;12.98;100.00
13314;BME280;6725;48.112;11.604;2023-08-30T04:30:47;94343.72;;;12.99;100.00
13314;BME280;6725;48.112;11.604;2023-08-30T04:33:12;94343.72;;;12.99;100.00
13314;BME280;6725;48.112;11.604;2023-08-30T04:35:38;94346.13;;;12.97;100.00
13314;BME280;6725;48.112;11.604;2023-08-30T04:38:04;94340.88;;;12.90;100.00
13314;BME280;6725;48.112;11.604;2023-08-30T04:40:30;94344.69;;;12.92;100.00
13314;BME280;6725;48.112;11.604;2023-08-30T04:42:57;94343.91;;;12.92;100.00
13314;BME280;6725;48.112;11.604;2023-08-30T04:45:22;94347.22;;;12.87;100.00
13314;BME280;6725;48.112;11.604;2023-08-30T04:47:48;94335.50;;;12.86;100.00
13314;BME280;6725;48.112;11.604;2023-08-30T04:50:14;94329.91;;;12.90;100.00
13314;BME280;6725;48.112;11.604;2023-08-30T04:52:39;94343.63;;;12.90;100.00
13314;BME280;6725;48.112;11.604;2023-08-30T04:55:05;94344.78;;;12.89;100.00
13314;BME280;6725;48.112;11.604;2023-08-30T04:57:31;94349.41;;;12.92;100.00
13314;BME280;6725;48.112;11.604;2023-08-30T04:59:57;94351.25;;;12.95;100.00
13314;BME280;6725;48.112;11.604;2023-08-30T05:02:22;94364.09;;;12.98;100.00
13314;BME280;6725;48.112;11.604;2023-08-30T05:04:47;94362.03;;;12.77;100.00
13314;BME280;6725;48.112;11.604;2023-08-30T05:07:13;94359.72;;;12.88;100.00
13314;BME280;6725;48.112;11.604;2023-08-30T05:09:38;94356.97;;;12.88;100.00
13314;BME280;6725;48.112;11.604;2023-08-30T05:12:06;94343.81;;;12.95;100.00
13314;BME280;6725;48.112;11.604;2023-08-30T05:14:31;94357.19;;;12.93;100.00
13314;BME280;6725;48.112;11.604;2023-08-30T05:16:56;94350.72;;;13.00;100.00
13314;BME280;6725;48.112;11.604;2023-08-30T05:19:22;94353.44;;;13.00;100.00
13314;BME280;6725;48.112;11.604;2023-08-30T05:21:47;94351.59;;;12.97;100.00
13314;BME280;6725;48.112;11.604;2023-08-30T05:24:16;94351.38;;;13.04;100.00
13314;BME280;6725;48.112;11.604;2023-08-30T05:26:41;94359.13;;;13.05;100.00
13314;BME280;6725;48.112;11.604;2023-08-30T05:29:07;94364.31;;;13.03;100.00
13314;BME280;6725;48.112;11.604;2023-08-30T05:31:32;94363.22;;;13.01;100.00
13314;BME280;6725;48.112;11.604;2023-08-30T05:33:58;94361.31;;;13.10;100.00
13314;BME280;6725;48.112;11.604;2023-08-30T05:36:23;94360.56;;;13.10;100.00
13314;BME280;6725;48.112;11.604;2023-08-30T05:38:48;94358.88;;;13.12;100.00
13314;BME280;6725;48.112;11.604;2023-08-30T05:41:13;94349.47;;;13.13;100.00
13314;BME280;6725;48.112;11.604;2023-08-30T05:43:39;94349.91;;;13.12;100.00
13314;BME280;6725;48.112;11.604;2023-08-30T05:46:04;94354.19;;;13.13;100.00
13314;BME280;6725;48.112;11.604;2023-08-30T05:48:30;94356.25;;;13.21;100.00
13314;BME280;6725;48.112;11.604;2023-08-30T05:50:55;94358.53;;;13.23;100.00
13314;BME280;6725;48.112;11.604;2023-08-30T05:53:21;94358.53;;;13.23;100.00
13314;BME280;6725;48.112;11.604;2023-08-30T05:55:46;94364.13;;;13.19;100.00
13314;BME280;6725;48.112;11.604;2023-08-30T05:58:11;94360.63;;;13.19;100.00
13314;BME280;6725;48.112;11.604;2023-08-30T06:00:37;94360.44;;;13.13;100.00
13314;BME280;6725;48.112;11.604;2023-08-30T06:03:03;94370.38;;;13.20;100.00
13314;BME280;6725;48.112;11.604;2023-08-30T06:05:28;94364.91;;;13.20;100.00
13314;BME280;6725;48.112;11.604;2023-08-30T06:07:54;94369.63;;;13.19;100.00
13314;BME280;6725;48.112;11.604;2023-08-30T06:10:19;94370.63;;;13.13;100.00
13314;BME280;6725;48.112;11.604;2023-08-30T06:12:45;94366.66;;;13.14;100.00
13314;BME280;6725;48.112;11.604;2023-08-30T06:15:10;94377.56;;;13.05;100.00
13314;BME280;6725;48.112;11.604;2023-08-30T06:17:35;94378.69;;;13.29;100.00
13314;BME280;6725;48.112;11.604;2023-08-30T06:20:01;94379.97;;;13.37;100.00
13314;BME280;6725;48.112;11.604;2023-08-30T06:22:26;94386.50;;;13.52;100.00
13314;BME280;6725;48.112;11.604;2023-08-30T06:24:51;94382.53;;;13.53;100.00
13314;BME280;6725;48.112;11.604;2023-08-30T06:27:17;94385.56;;;13.55;100.00
13314;BME280;6725;48.112;11.604;2023-08-30T06:29:43;94394.13;;;13.57;100.00
13314;BME280;6725;48.112;11.604;2023-08-30T06:32:08;94399.63;;;13.57;100.00
13314;BME280;6725;48.112;11.604;2023-08-30T06:34:33;94387.50;;;13.67;100.00
13314;BME280;6725;48.112;11.604;2023-08-30T06:36:59;94386.44;;;13.65;100.00
13314;BME280;6725;48.112;11.604;2023-08-30T06:39:24;94388.63;;;13.79;100.00
13314;BME280;6725;48.112;11.604;2023-08-30T06:41:49;94396.41;;;13.80;100.00
13314;BME280;6725;48.112;11.604;2023-08-30T06:44:15;94395.53;;;13.83;100.00
13314;BME280;6725;48.112;11.604;2023-08-30T06:46:42;94394.63;;;13.86;100.00
13314;BME280;6725;48.112;11.604;2023-08-30T06:49:07;94402.09;;;13.86;100.00
13314;BME280;6725;48.112;11.604;2023-08-30T06:51:34;94400.78;;;13.99;100.00
13314;BME280;6725;48.112;11.604;2023-08-30T06:54:00;94404.72;;;13.89;100.00
13314;BME280;6725;48.112;11.604;2023-08-30T06:56:26;94405.84;;;14.01;100.00
13314;BME280;6725;48.112;11.604;2023-08-30T06:58:52;94411.66;;;14.03;100.00
13314;BME280;6725;48.112;11.604;2023-08-30T07:01:17;94416.97;;;13.97;100.00
13314;BME280;6725;48.112;11.604;2023-08-30T07:03:42;94409.69;;;14.03;100.00
13314;BME280;6725;48.112;11.604;2023-08-30T07:06:09;94413.63;;;14.02;100.00
13314;BME280;6725;48.112;11.604;2023-08-30T07:08:34;94410.25;;;13.98;100.00
13314;BME280;6725;48.112;11.604;2023-08-30T07:11:00;94412.69;;;13.96;100.00
13314;BME280;6725;48.112;11.604;2023-08-30T07:13:25;94406.09;;;13.94;100.00
13314;BME280;6725;48.112;11.604;2023-08-30T07:15:50;94406.00;;;13.97;100.00
13314;BME280;6725;48.112;11.604;2023-08-30T07:18:16;94397.16;;;14.02;100.00
13314;BME280;6725;48.112;11.604;2023-08-30T07:20:41;94397.94;;;14.03;100.00
13314;BME280;6725;48.112;11.604;2023-08-30T07:23:07;94390.47;;;14.03;100.00
13314;BME280;6725;48.112;11.604;2023-08-30T07:25:32;94393.34;;;14.00;100.00
13314;BME280;6725;48.112;11.604;2023-08-30T07:27:59;94388.63;;;14.00;100.00
13314;BME280;6725;48.112;11.604;2023-08-30T07:30:25;94389.50;;;13.97;100.00
13314;BME280;6725;48.112;11.604;2023-08-30T07:32:50;94403.28;;;14.06;100.00
13314;BME280;6725;48.112;11.604;2023-08-30T07:35:16;94391.09;;;14.07;100.00
13314;BME280;6725;48.112;11.604;2023-08-30T07:37:41;94401.63;;;14.30;100.00
13314;BME280;6725;48.112;11.604;2023-08-30T07:40:07;94391.88;;;14.38;100.00
13314;BME280;6725;48.112;11.604;2023-08-30T07:42:33;94388.56;;;14.43;100.00
13314;BME280;6725;48.112;11.604;2023-08-30T07:44:59;94387.06;;;14.51;100.00
13314;BME280;6725;48.112;11.604;2023-08-30T07:47:24;94410.41;;;14.56;100.00
13314;BME280;6725;48.112;11.604;2023-08-30T07:49:49;94411.06;;;14.60;100.00
13314;BME280;6725;48.112;11.604;2023-08-30T07:52:14;94414.28;;;14.67;100.00
13314;BME280;6725;48.112;11.604;2023-08-30T07:54:40;94411.53;;;14.67;100.00
13314;BME280;6725;48.112;11.604;2023-08-30T07:57:06;94395.81;;;14.77;100.00
13314;BME280;6725;48.112;11.604;2023-08-30T07:59:33;94384.09;;;14.76;100.00
13314;BME280;6725;48.112;11.604;2023-08-30T08:01:59;94377.94;;;14.72;100.00
13314;BME280;6725;48.112;11.604;2023-08-30T08:04:24;94342.25;;;14.81;100.00
13314;BME280;6725;48.112;11.604;2023-08-30T08:06:49;94338.84;;;14.68;100.00
13314;BME280;6725;48.112;11.604;2023-08-30T08:09:15;94307.72;;;14.71;100.00
13314;BME280;6725;48.112;11.604;2023-08-30T08:11:40;94296.13;;;14.76;100.00
13314;BME280;6725;48.112;11.604;2023-08-30T08:14:11;94275.97;;;14.70;100.00
13314;BME280;6725;48.112;11.604;2023-08-30T08:16:37;94253.97;;;14.70;100.00
13314;BME280;6725;48.112;11.604;2023-08-30T08:19:02;94227.72;;;14.78;100.00
13314;BME280;6725;48.112;11.604;2023-08-30T08:21:28;94203.28;;;14.80;100.00
13314;BME280;6725;48.112;11.604;2023-08-30T08:23:53;94185.53;;;14.90;100.00
13314;BME280;6725;48.112;11.604;2023-08-30T08:26:19;94154.97;;;15.06;100.00
13314;BME280;6725;48.112;11.604;2023-08-30T08:28:44;94142.88;;;15.13;100.00
13314;BME280;6725;48.112;11.604;2023-08-30T08:31:09;94118.78;;;15.08;100.00
13314;BME280;6725;48.112;11.604;2023-08-30T08:33:35;94122.31;;;14.99;100.00
13314;BME280;6725;48.112;11.604;2023-08-30T08:36:00;94100.13;;;15.03;100.00
13314;BME280;6725;48.112;11.604;2023-08-30T08:38:26;94084.69;;;15.14;100.00
13314;BME280;6725;48.112;11.604;2023-08-30T08:41:02;94054.63;;;15.34;100.00
13314;BME280;6725;48.112;11.604;2023-08-30T08:43:29;94040.00;;;15.28;100.00
13314;BME280;6725;48.112;11.604;2023-08-30T08:45:57;93996.56;;;15.32;100.00
13314;BME280;6725;48.112;11.604;2023-08-30T08:48:25;93983.72;;;15.06;100.00
13314;BME280;6725;48.112;11.604;2023-08-30T08:50:53;93977.00;;;15.39;100.00
13314;BME280;6725;48.112;11.604;2023-08-30T08:53:19;93937.94;;;15.50;100.00
13314;BME280;6725;48.112;11.604;2023-08-30T08:55:45;93916.66;;;15.88;100.00
13314;BME280;6725;48.112;11.604;2023-08-30T08:58:11;93903.28;;;16.39;100.00
13314;BME280;6725;48.112;11.604;2023-08-30T09:00:37;93879.31;;;16.95;100.00
13314;BME280;6725;48.112;11.604;2023-08-30T09:03:05;93854.78;;;16.97;100.00
13314;BME280;6725;48.112;11.604;2023-08-30T09:05:31;93823.63;;;16.91;100.00
13314;BME280;6725;48.112;11.604;2023-08-30T09:07:56;93800.59;;;16.94;100.00
13314;BME280;6725;48.112;11.604;2023-08-30T09:10:22;93742.66;;;17.90;100.00
13314;BME280;6725;48.112;11.604;2023-08-30T09:12:47;93693.25;;;19.04;100.00
13314;BME280;6725;48.112;11.604;2023-08-30T09:15:13;93649.81;;;19.98;100.00
13314;BME280;6725;48.112;11.604;2023-08-30T09:17:40;93626.25;;;20.54;100.00
13314;BME280;6725;48.112;11.604;2023-08-30T09:20:10;93672.13;;;20.66;100.00
13314;BME280;6725;48.112;11.604;2023-08-30T09:22:42;93752.34;;;20.42;100.00
13314;BME280;6725;48.112;11.604;2023-08-30T09:25:09;93794.22;;;20.06;100.00
13314;BME280;6725;48.112;11.604;2023-08-30T09:27:36;93796.97;;;20.72;100.00
13314;BME280;6725;48.112;11.604;2023-08-30T09:30:05;93817.44;;;21.42;100.00
13314;BME280;6725;48.112;11.604;2023-08-30T09:32:38;93881.47;;;21.88;100.00
13314;BME280;6725;48.112;11.604;2023-08-30T09:35:04;93908.56;;;21.60;100.00
13314;BME280;6725;48.112;11.604;2023-08-30T09:37:30;93925.03;;;21.53;100.00
13314;BME280;6725;48.112;11.604;2023-08-30T09:39:55;93966.75;;;20.81;100.00
13314;BME280;6725;48.112;11.604;2023-08-30T09:42:22;93949.56;;;20.55;100.00
13314;BME280;6725;48.112;11.604;2023-08-30T09:44:47;93966.19;;;20.39;100.00
13314;BME280;6725;48.112;11.604;2023-08-30T09:47:13;93963.09;;;20.20;100.00
13314;BME280;6725;48.112;11.604;2023-08-30T09:49:45;93949.25;;;20.26;100.00
13314;BME280;6725;48.112;11.604;2023-08-30T09:52:12;93962.22;;;21.00;100.00
13314;BME280;6725;48.112;11.604;2023-08-30T09:54:41;93986.63;;;21.79;100.00
13314;BME280;6725;48.112;11.604;2023-08-30T09:57:07;93975.81;;;22.79;100.00
13314;BME280;6725;48.112;11.604;2023-08-30T09:59:32;94063.34;;;23.29;100.00
13314;BME280;6725;48.112;11.604;2023-08-30T10:01:58;94233.56;;;22.35;100.00
13314;BME280;6725;48.112;11.604;2023-08-30T10:04:26;94236.56;;;22.26;100.00
13314;BME280;6725;48.112;11.604;2023-08-30T10:06:51;94191.59;;;22.06;100.00
13314;BME280;6725;48.112;11.604;2023-08-30T10:09:19;94168.53;;;22.38;100.00
13314;BME280;6725;48.112;11.604;2023-08-30T10:11:45;94196.63;;;22.29;100.00
13314;BME280;6725;48.112;11.604;2023-08-30T10:14:11;94190.06;;;21.99;100.00
13314;BME280;6725;48.112;11.604;2023-08-30T10:16:41;94191.59;;;21.78;100.00
13314;BME280;6725;48.112;11.604;2023-08-30T10:19:13;94213.22;;;21.30;100.00
13314;BME280;6725;48.112;11.604;2023-08-30T10:21:39;94165.25;;;21.68;100.00
13314;BME280;6725;48.112;11.604;2023-08-30T10:24:08;94191.28;;;21.43;100.00
13314;BME280;6725;48.112;11.604;2023-08-30T10:26:35;94178.38;;;21.40;100.00
13314;BME280;6725;48.112;11.604;2023-08-30T10:29:03;94197.84;;;21.51;100.00
13314;BME280;6725;48.112;11.604;2023-08-30T10:31:29;94266.97;;;21.27;100.00
13314;BME280;6725;48.112;11.604;2023-08-30T10:33:55;94324.94;;;21.56;100.00
13314;BME280;6725;48.112;11.604;2023-08-30T10:36:25;94381.19;;;21.93;100.00
13314;BME280;6725;48.112;11.604;2023-08-30T10:38:52;94432.47;;;22.79;100.00
13314;BME280;6725;48.112;11.604;2023-08-30T10:41:25;94506.28;;;22.41;100.00
13314;BME280;6725;48.112;11.604;2023-08-30T10:43:57;94513.47;;;22.70;100.00
13314;BME280;6725;48.112;11.604;2023-08-30T10:46:32;94516.25;;;22.81;100.00
13314;BME280;6725;48.112;11.604;2023-08-30T10:49:14;94546.72;;;22.31;100.00
13314;BME280;6725;48.112;11.604;2023-08-30T10:51:40;94522.53;;;21.58;100.00
13314;BME280;6725;48.112;11.604;2023-08-30T10:54:15;94494.09;;;21.07;100.00
13314;BME280;6725;48.112;11.604;2023-08-30T10:59:20;94444.19;;;20.56;100.00
13314;BME280;6725;48.112;11.604;2023-08-30T11:01:48;94411.84;;;20.78;100.00
13314;BME280;6725;48.112;11.604;2023-08-30T11:04:17;94397.38;;;20.69;100.00
13314;BME280;6725;48.112;11.604;2023-08-30T11:06:47;94389.88;;;20.80;100.00
13314;BME280;6725;48.112;11.604;2023-08-30T11:09:21;94401.28;;;21.19;100.00
13314;BME280;6725;48.112;11.604;2023-08-30T11:11:48;94430.72;;;21.89;100.00
13314;BME280;6725;48.112;11.604;2023-08-30T11:14:15;94495.59;;;22.23;100.00
13314;BME280;6725;48.112;11.604;2023-08-30T11:16:41;94567.47;;;22.35;100.00
13314;BME280;6725;48.112;11.604;2023-08-30T11:19:08;94587.56;;;22.08;100.00
13314;BME280;6725;48.112;11.604;2023-08-30T11:21:36;94600.34;;;21.89;100.00
13314;BME280;6725;48.112;11.604;2023-08-30T11:24:06;94602.31;;;21.78;100.00
13314;BME280;6725;48.112;11.604;2023-08-30T11:26:31;94590.38;;;21.46;100.00
13314;BME280;6725;48.112;11.604;2023-08-30T11:28:57;94573.53;;;21.55;100.00
13314;BME280;6725;48.112;11.604;2023-08-30T11:31:24;94575.78;;;21.20;100.00
13314;BME280;6725;48.112;11.604;2023-08-30T11:33:53;94571.69;;;20.90;100.00
13314;BME280;6725;48.112;11.604;2023-08-30T11:36:21;94558.91;;;20.98;100.00
13314;BME280;6725;48.112;11.604;2023-08-30T11:38:48;94551.94;;;21.08;100.00
13314;BME280;6725;48.112;11.604;2023-08-30T11:41:14;94566.69;;;21.20;100.00
13314;BME280;6725;48.112;11.604;2023-08-30T11:43:39;94566.28;;;21.63;100.00
13314;BME280;6725;48.112;11.604;2023-08-30T11:46:05;94581.16;;;21.60;100.00
13314;BME280;6725;48.112;11.604;2023-08-30T11:48:31;94594.72;;;21.47;100.00
13314;BME280;6725;48.112;11.604;2023-08-30T11:50:58;94606.53;;;21.42;100.00
13314;BME280;6725;48.112;11.604;2023-08-30T11:53:23;94608.50;;;21.67;100.00
13314;BME280;6725;48.112;11.604;2023-08-30T11:55:49;94616.50;;;21.54;100.00
13314;BME280;6725;48.112;11.604;2023-08-30T11:58:15;94610.13;;;21.48;100.00
13314;BME280;6725;48.112;11.604;2023-08-30T12:00:40;94609.38;;;21.53;100.00
13314;BME280;6725;48.112;11.604;2023-08-30T12:03:05;94620.31;;;21.31;100.00
13314;BME280;6725;48.112;11.604;2023-08-30T12:05:31;94621.31;;;21.28;100.00
13314;BME280;6725;48.112;11.604;2023-08-30T12:08:00;94617.50;;;21.00;100.00
13314;BME280;6725;48.112;11.604;2023-08-30T12:10:28;94613.63;;;20.92;100.00
13314;BME280;6725;48.112;11.604;2023-08-30T12:12:54;94606.81;;;20.93;100.00
13314;BME280;6725;48.112;11.604;2023-08-30T12:15:22;94604.06;;;20.73;100.00
13314;BME280;6725;48.112;11.604;2023-08-30T12:17:47;94596.00;;;20.75;100.00
13314;BME280;6725;48.112;11.604;2023-08-30T12:20:16;94596.31;;;20.57;100.00
13314;BME280;6725;48.112;11.604;2023-08-30T12:22:51;94599.00;;;20.52;100.00
13314;BME280;6725;48.112;11.604;2023-08-30T12:25:20;94595.28;;;20.55;100.00
13314;BME280;6725;48.112;11.604;2023-08-30T12:27:47;94593.13;;;20.44;100.00
13314;BME280;6725;48.112;11.604;2023-08-30T12:30:15;94590.97;;;20.54;100.00
13314;BME280;6725;48.112;11.604;2023-08-30T12:32:45;94600.31;;;20.36;100.00
13314;BME280;6725;48.112;11.604;2023-08-30T12:35:11;94597.50;;;20.51;100.00
13314;BME280;6725;48.112;11.604;2023-08-30T12:37:36;94602.53;;;20.32;100.00
13314;BME280;6725;48.112;11.604;2023-08-30T12:40:02;94586.56;;;20.07;100.00
13314;BME280;6725;48.112;11.604;2023-08-30T12:42:28;94600.56;;;19.98;100.00
13314;BME280;6725;48.112;11.604;2023-08-30T12:44:53;94587.53;;;20.04;100.00
13314;BME280;6725;48.112;11.604;2023-08-30T12:47:18;94582.19;;;20.01;100.00
13314;BME280;6725;48.112;11.604;2023-08-30T12:49:44;94590.50;;;20.01;100.00
13314;BME280;6725;48.112;11.604;2023-08-30T12:52:09;94584.88;;;19.95;100.00